sensor_id;sensor_type;location;lat;lon;timestamp;temperature;humidity
68924;DHT22;55961;52.156;20.942;2024-03-25T00:00:20;4.70;82.90
68924;DHT22;55961;52.156;20.942;2024-03-25T00:03:06;4.70;83.10
68924;DHT22;55961;52.156;20.942;2024-03-25T00:05:32;4.60;83.20
68924;DHT22;55961;52.156;20.942;2024-03-25T00:07:58;4.60;83.60
68924;DHT22;55961;52.156;20.942;2024-03-25T00:10:24;4.60;83.70
68924;DHT22;55961;52.156;20.942;2024-03-25T00:12:50;4.50;83.80
68924;DHT22;55961;52.156;20.942;2024-03-25T00:15:20;4.50;84.10
68924;DHT22;55961;52.156;20.942;2024-03-25T00:17:47;4.40;84.20
68924;DHT22;55961;52.156;20.942;2024-03-25T00:20:13;4.40;84.30
68924;DHT22;55961;52.156;20.942;2024-03-25T00:22:41;4.30;84.50
68924;DHT22;55961;52.156;20.942;2024-03-25T00:25:07;4.30;84.60
68924;DHT22;55961;52.156;20.942;2024-03-25T00:27:34;4.20;84.80
68924;DHT22;55961;52.156;20.942;2024-03-25T00:30:00;4.20;84.70
68924;DHT22;55961;52.156;20.942;2024-03-25T00:32:26;4.10;84.70
68924;DHT22;55961;52.156;20.942;2024-03-25T00:34:52;4.10;84.90
68924;DHT22;55961;52.156;20.942;2024-03-25T00:37:18;4.10;84.80
68924;DHT22;55961;52.156;20.942;2024-03-25T00:39:45;4.10;84.90
68924;DHT22;55961;52.156;20.942;2024-03-25T00:42:11;4.10;85.00
68924;DHT22;55961;52.156;20.942;2024-03-25T00:44:37;4.00;85.00
68924;DHT22;55961;52.156;20.942;2024-03-25T00:47:03;4.00;85.40
68924;DHT22;55961;52.156;20.942;2024-03-25T00:49:29;4.00;85.40
68924;DHT22;55961;52.156;20.942;2024-03-25T00:51:55;4.00;85.50
68924;DHT22;55961;52.156;20.942;2024-03-25T00:54:21;3.90;86.00
68924;DHT22;55961;52.156;20.942;2024-03-25T00:56:49;3.90;86.00
68924;DHT22;55961;52.156;20.942;2024-03-25T00:59:15;3.90;86.30
68924;DHT22;55961;52.156;20.942;2024-03-25T01:01:42;3.80;86.30
68924;DHT22;55961;52.156;20.942;2024-03-25T01:04:08;3.80;86.30
68924;DHT22;55961;52.156;20.942;2024-03-25T01:06:34;3.80;86.50
68924;DHT22;55961;52.156;20.942;2024-03-25T01:09:00;3.80;87.00
68924;DHT22;55961;52.156;20.942;2024-03-25T01:11:25;3.80;86.70
68924;DHT22;55961;52.156;20.942;2024-03-25T01:13:52;3.80;86.80
68924;DHT22;55961;52.156;20.942;2024-03-25T01:16:17;3.80;87.30
68924;DHT22;55961;52.156;20.942;2024-03-25T01:18:43;3.70;87.30
68924;DHT22;55961;52.156;20.942;2024-03-25T01:21:09;3.70;87.40
68924;DHT22;55961;52.156;20.942;2024-03-25T01:23:35;3.70;87.60
68924;DHT22;55961;52.156;20.942;2024-03-25T01:26:01;3.70;87.80
68924;DHT22;55961;52.156;20.942;2024-03-25T01:28:27;3.70;87.90
68924;DHT22;55961;52.156;20.942;2024-03-25T01:30:53;3.70;88.10
68924;DHT22;55961;52.156;20.942;2024-03-25T01:33:20;3.60;88.10
68924;DHT22;55961;52.156;20.942;2024-03-25T01:35:46;3.60;88.20
68924;DHT22;55961;52.156;20.942;2024-03-25T01:38:12;3.60;88.10
68924;DHT22;55961;52.156;20.942;2024-03-25T01:40:38;3.60;88.30
68924;DHT22;55961;52.156;20.942;2024-03-25T01:43:05;3.60;88.30
68924;DHT22;55961;52.156;20.942;2024-03-25T01:45:33;3.60;88.40
68924;DHT22;55961;52.156;20.942;2024-03-25T01:48:02;3.60;88.50
68924;DHT22;55961;52.156;20.942;2024-03-25T01:50:31;3.60;88.90
68924;DHT22;55961;52.156;20.942;2024-03-25T01:52:58;3.60;88.80
68924;DHT22;55961;52.156;20.942;2024-03-25T01:55:27;3.50;88.90
68924;DHT22;55961;52.156;20.942;2024-03-25T01:57:54;3.50;89.20
68924;DHT22;55961;52.156;20.942;2024-03-25T02:00:20;3.50;89.40
68924;DHT22;55961;52.156;20.942;2024-03-25T02:02:46;3.50;89.20
68924;DHT22;55961;52.156;20.942;2024-03-25T02:05:17;3.50;89.00
68924;DHT22;55961;52.156;20.942;2024-03-25T02:07:43;3.50;88.90
68924;DHT22;55961;52.156;20.942;2024-03-25T02:10:10;3.50;88.90
68924;DHT22;55961;52.156;20.942;2024-03-25T02:12:37;3.50;88.90
68924;DHT22;55961;52.156;20.942;2024-03-25T02:15:07;3.40;88.90
68924;DHT22;55961;52.156;20.942;2024-03-25T02:17:34;3.40;88.70
68924;DHT22;55961;52.156;20.942;2024-03-25T02:20:01;3.40;88.70
68924;DHT22;55961;52.156;20.942;2024-03-25T02:22:29;3.40;88.70
68924;DHT22;55961;52.156;20.942;2024-03-25T02:24:57;3.30;88.80
68924;DHT22;55961;52.156;20.942;2024-03-25T02:27:27;3.30;88.80
68924;DHT22;55961;52.156;20.942;2024-03-25T02:30:08;3.30;88.70
68924;DHT22;55961;52.156;20.942;2024-03-25T02:32:35;3.30;88.70
68924;DHT22;55961;52.156;20.942;2024-03-25T02:35:04;3.40;88.80
68924;DHT22;55961;52.156;20.942;2024-03-25T02:37:31;3.40;88.70
68924;DHT22;55961;52.156;20.942;2024-03-25T02:39:59;3.40;88.70
68924;DHT22;55961;52.156;20.942;2024-03-25T02:42:25;3.40;88.70
68924;DHT22;55961;52.156;20.942;2024-03-25T02:44:55;3.40;88.70
68924;DHT22;55961;52.156;20.942;2024-03-25T02:47:22;3.40;88.70
68924;DHT22;55961;52.156;20.942;2024-03-25T02:49:48;3.40;88.80
68924;DHT22;55961;52.156;20.942;2024-03-25T02:52:14;3.40;88.80
68924;DHT22;55961;52.156;20.942;2024-03-25T02:54:40;3.40;88.90
68924;DHT22;55961;52.156;20.942;2024-03-25T02:57:06;3.40;88.90
68924;DHT22;55961;52.156;20.942;2024-03-25T02:59:32;3.40;88.80
68924;DHT22;55961;52.156;20.942;2024-03-25T03:01:58;3.40;88.90
68924;DHT22;55961;52.156;20.942;2024-03-25T03:04:24;3.40;88.90
68924;DHT22;55961;52.156;20.942;2024-03-25T03:06:50;3.40;89.00
68924;DHT22;55961;52.156;20.942;2024-03-25T03:09:16;3.40;88.90
68924;DHT22;55961;52.156;20.942;2024-03-25T03:11:42;3.40;88.90
68924;DHT22;55961;52.156;20.942;2024-03-25T03:14:08;3.40;88.90
68924;DHT22;55961;52.156;20.942;2024-03-25T03:16:34;3.40;89.10
68924;DHT22;55961;52.156;20.942;2024-03-25T03:19:00;3.40;89.10
68924;DHT22;55961;52.156;20.942;2024-03-25T03:21:26;3.30;89.20
68924;DHT22;55961;52.156;20.942;2024-03-25T03:23:52;3.30;89.40
68924;DHT22;55961;52.156;20.942;2024-03-25T03:26:18;3.30;89.20
68924;DHT22;55961;52.156;20.942;2024-03-25T03:28:44;3.30;89.30
68924;DHT22;55961;52.156;20.942;2024-03-25T03:31:10;3.30;89.20
68924;DHT22;55961;52.156;20.942;2024-03-25T03:33:36;3.30;89.20
68924;DHT22;55961;52.156;20.942;2024-03-25T03:36:02;3.30;89.30
68924;DHT22;55961;52.156;20.942;2024-03-25T03:38:28;3.30;89.60
68924;DHT22;55961;52.156;20.942;2024-03-25T03:41:02;3.30;89.80
68924;DHT22;55961;52.156;20.942;2024-03-25T03:43:28;3.30;89.90
68924;DHT22;55961;52.156;20.942;2024-03-25T03:45:54;3.30;90.10
68924;DHT22;55961;52.156;20.942;2024-03-25T03:48:20;3.30;90.10
68924;DHT22;55961;52.156;20.942;2024-03-25T03:50:46;3.30;90.20
68924;DHT22;55961;52.156;20.942;2024-03-25T03:53:12;3.30;90.30
68924;DHT22;55961;52.156;20.942;2024-03-25T03:55:38;3.30;90.20
68924;DHT22;55961;52.156;20.942;2024-03-25T03:58:05;3.30;90.30
68924;DHT22;55961;52.156;20.942;2024-03-25T04:00:35;3.20;90.20
68924;DHT22;55961;52.156;20.942;2024-03-25T04:03:01;3.20;90.20
68924;DHT22;55961;52.156;20.942;2024-03-25T04:05:29;3.20;90.30
68924;DHT22;55961;52.156;20.942;2024-03-25T04:07:55;3.20;90.20
68924;DHT22;55961;52.156;20.942;2024-03-25T04:10:23;3.20;90.40
68924;DHT22;55961;52.156;20.942;2024-03-25T04:12:49;3.20;90.70
68924;DHT22;55961;52.156;20.942;2024-03-25T04:15:15;3.20;90.80
68924;DHT22;55961;52.156;20.942;2024-03-25T04:17:46;3.20;90.90
68924;DHT22;55961;52.156;20.942;2024-03-25T04:20:15;3.10;91.00
68924;DHT22;55961;52.156;20.942;2024-03-25T04:22:45;3.10;91.00
68924;DHT22;55961;52.156;20.942;2024-03-25T04:25:12;3.10;91.10
68924;DHT22;55961;52.156;20.942;2024-03-25T04:27:43;3.10;91.30
68924;DHT22;55961;52.156;20.942;2024-03-25T04:30:10;3.10;91.20
68924;DHT22;55961;52.156;20.942;2024-03-25T04:32:37;3.00;91.40
68924;DHT22;55961;52.156;20.942;2024-03-25T04:35:04;3.00;91.40
68924;DHT22;55961;52.156;20.942;2024-03-25T04:37:32;3.00;91.60
68924;DHT22;55961;52.156;20.942;2024-03-25T04:39:58;3.00;91.70
68924;DHT22;55961;52.156;20.942;2024-03-25T04:42:24;3.00;91.70
68924;DHT22;55961;52.156;20.942;2024-03-25T04:44:50;3.00;92.00
68924;DHT22;55961;52.156;20.942;2024-03-25T04:47:19;3.00;92.00
68924;DHT22;55961;52.156;20.942;2024-03-25T04:49:45;3.00;92.00
68924;DHT22;55961;52.156;20.942;2024-03-25T04:52:12;3.00;92.20
68924;DHT22;55961;52.156;20.942;2024-03-25T04:54:44;3.00;92.30
68924;DHT22;55961;52.156;20.942;2024-03-25T04:57:10;3.00;92.30
68924;DHT22;55961;52.156;20.942;2024-03-25T04:59:36;3.00;92.50
68924;DHT22;55961;52.156;20.942;2024-03-25T05:02:02;3.00;92.40
68924;DHT22;55961;52.156;20.942;2024-03-25T05:04:28;3.00;92.60
68924;DHT22;55961;52.156;20.942;2024-03-25T05:06:55;3.00;92.80
68924;DHT22;55961;52.156;20.942;2024-03-25T05:09:21;3.00;93.10
68924;DHT22;55961;52.156;20.942;2024-03-25T05:11:47;3.00;93.10
68924;DHT22;55961;52.156;20.942;2024-03-25T05:14:13;3.00;93.20
68924;DHT22;55961;52.156;20.942;2024-03-25T05:16:38;3.00;93.50
68924;DHT22;55961;52.156;20.942;2024-03-25T05:19:04;3.00;93.70
68924;DHT22;55961;52.156;20.942;2024-03-25T05:21:31;3.00;93.90
68924;DHT22;55961;52.156;20.942;2024-03-25T05:23:57;3.00;94.20
68924;DHT22;55961;52.156;20.942;2024-03-25T05:26:23;3.00;94.40
68924;DHT22;55961;52.156;20.942;2024-03-25T05:28:56;3.10;94.50
68924;DHT22;55961;52.156;20.942;2024-03-25T05:31:23;3.10;94.80
68924;DHT22;55961;52.156;20.942;2024-03-25T05:33:50;3.10;95.10
68924;DHT22;55961;52.156;20.942;2024-03-25T05:36:16;3.10;94.90
68924;DHT22;55961;52.156;20.942;2024-03-25T05:38:42;3.20;94.90
68924;DHT22;55961;52.156;20.942;2024-03-25T05:41:09;3.20;95.50
68924;DHT22;55961;52.156;20.942;2024-03-25T05:43:38;3.20;95.20
68924;DHT22;55961;52.156;20.942;2024-03-25T05:46:04;3.30;95.30
68924;DHT22;55961;52.156;20.942;2024-03-25T05:48:30;3.40;95.10
68924;DHT22;55961;52.156;20.942;2024-03-25T05:51:04;3.40;95.30
68924;DHT22;55961;52.156;20.942;2024-03-25T05:53:33;3.50;94.90
68924;DHT22;55961;52.156;20.942;2024-03-25T05:55:59;3.60;94.70
68924;DHT22;55961;52.156;20.942;2024-03-25T05:58:26;3.70;94.30
68924;DHT22;55961;52.156;20.942;2024-03-25T06:00:52;3.70;93.90
68924;DHT22;55961;52.156;20.942;2024-03-25T06:03:21;3.80;93.60
68924;DHT22;55961;52.156;20.942;2024-03-25T06:05:48;3.80;93.60
68924;DHT22;55961;52.156;20.942;2024-03-25T06:08:14;3.90;93.50
68924;DHT22;55961;52.156;20.942;2024-03-25T06:10:50;3.90;93.20
68924;DHT22;55961;52.156;20.942;2024-03-25T06:13:17;4.00;92.80
68924;DHT22;55961;52.156;20.942;2024-03-25T06:15:43;4.00;92.40
68924;DHT22;55961;52.156;20.942;2024-03-25T06:18:09;4.10;92.10
68924;DHT22;55961;52.156;20.942;2024-03-25T06:20:35;4.10;91.90
68924;DHT22;55961;52.156;20.942;2024-03-25T06:23:01;4.10;91.60
68924;DHT22;55961;52.156;20.942;2024-03-25T06:25:27;4.20;91.40
68924;DHT22;55961;52.156;20.942;2024-03-25T06:27:56;4.20;91.20
68924;DHT22;55961;52.156;20.942;2024-03-25T06:30:22;4.30;90.90
68924;DHT22;55961;52.156;20.942;2024-03-25T06:33:07;4.30;90.70
68924;DHT22;55961;52.156;20.942;2024-03-25T06:35:51;4.30;90.60
68924;DHT22;55961;52.156;20.942;2024-03-25T06:38:21;4.40;90.50
68924;DHT22;55961;52.156;20.942;2024-03-25T06:40:46;4.40;90.30
68924;DHT22;55961;52.156;20.942;2024-03-25T06:43:13;4.50;89.90
68924;DHT22;55961;52.156;20.942;2024-03-25T06:45:41;4.60;89.90
68924;DHT22;55961;52.156;20.942;2024-03-25T06:48:07;4.60;89.30
68924;DHT22;55961;52.156;20.942;2024-03-25T06:50:33;4.70;89.00
68924;DHT22;55961;52.156;20.942;2024-03-25T06:52:59;4.80;88.90
68924;DHT22;55961;52.156;20.942;2024-03-25T06:55:25;4.90;88.70
68924;DHT22;55961;52.156;20.942;2024-03-25T06:57:54;4.90;89.00
68924;DHT22;55961;52.156;20.942;2024-03-25T07:00:20;5.10;89.00
68924;DHT22;55961;52.156;20.942;2024-03-25T07:02:48;5.20;88.10
68924;DHT22;55961;52.156;20.942;2024-03-25T07:05:14;5.30;87.90
68924;DHT22;55961;52.156;20.942;2024-03-25T07:07:40;5.40;87.50
68924;DHT22;55961;52.156;20.942;2024-03-25T07:10:07;5.50;86.40
68924;DHT22;55961;52.156;20.942;2024-03-25T07:12:33;5.60;86.10
68924;DHT22;55961;52.156;20.942;2024-03-25T07:14:59;5.60;85.90
68924;DHT22;55961;52.156;20.942;2024-03-25T07:17:25;5.70;85.70
68924;DHT22;55961;52.156;20.942;2024-03-25T07:19:51;5.80;85.70
68924;DHT22;55961;52.156;20.942;2024-03-25T07:22:18;5.90;84.40
68924;DHT22;55961;52.156;20.942;2024-03-25T07:24:45;6.00;84.40
68924;DHT22;55961;52.156;20.942;2024-03-25T07:27:11;6.10;83.10
68924;DHT22;55961;52.156;20.942;2024-03-25T07:29:37;6.20;82.00
68924;DHT22;55961;52.156;20.942;2024-03-25T07:32:03;6.30;82.20
68924;DHT22;55961;52.156;20.942;2024-03-25T07:34:29;6.40;81.90
68924;DHT22;55961;52.156;20.942;2024-03-25T07:36:56;6.50;82.20
68924;DHT22;55961;52.156;20.942;2024-03-25T07:39:21;6.60;81.50
68924;DHT22;55961;52.156;20.942;2024-03-25T07:41:50;6.70;80.50
68924;DHT22;55961;52.156;20.942;2024-03-25T07:44:16;6.90;79.90
68924;DHT22;55961;52.156;20.942;2024-03-25T07:46:42;7.00;78.50
68924;DHT22;55961;52.156;20.942;2024-03-25T07:49:08;7.20;78.80
68924;DHT22;55961;52.156;20.942;2024-03-25T07:51:34;7.30;77.80
68924;DHT22;55961;52.156;20.942;2024-03-25T07:54:01;7.50;76.30
68924;DHT22;55961;52.156;20.942;2024-03-25T07:56:29;7.60;75.90
68924;DHT22;55961;52.156;20.942;2024-03-25T07:58:58;7.60;75.60
68924;DHT22;55961;52.156;20.942;2024-03-25T08:01:25;7.60;74.80
68924;DHT22;55961;52.156;20.942;2024-03-25T08:03:51;7.70;75.00
68924;DHT22;55961;52.156;20.942;2024-03-25T08:06:17;7.70;74.70
68924;DHT22;55961;52.156;20.942;2024-03-25T08:08:43;7.80;73.80
68924;DHT22;55961;52.156;20.942;2024-03-25T08:11:09;7.90;73.90
68924;DHT22;55961;52.156;20.942;2024-03-25T08:13:35;7.90;72.90
68924;DHT22;55961;52.156;20.942;2024-03-25T08:16:01;8.00;73.40
68924;DHT22;55961;52.156;20.942;2024-03-25T08:18:27;8.00;73.30
68924;DHT22;55961;52.156;20.942;2024-03-25T08:20:53;8.10;72.40
68924;DHT22;55961;52.156;20.942;2024-03-25T08:23:19;8.10;73.00
68924;DHT22;55961;52.156;20.942;2024-03-25T08:25:45;8.20;72.60
68924;DHT22;55961;52.156;20.942;2024-03-25T08:28:10;8.20;71.70
68924;DHT22;55961;52.156;20.942;2024-03-25T08:30:36;8.30;72.90
68924;DHT22;55961;52.156;20.942;2024-03-25T08:33:02;8.30;71.80
68924;DHT22;55961;52.156;20.942;2024-03-25T08:35:29;8.40;71.50
68924;DHT22;55961;52.156;20.942;2024-03-25T08:37:54;8.40;69.40
68924;DHT22;55961;52.156;20.942;2024-03-25T08:40:20;8.50;69.90
68924;DHT22;55961;52.156;20.942;2024-03-25T08:42:46;8.60;71.40
68924;DHT22;55961;52.156;20.942;2024-03-25T08:45:12;8.70;71.00
68924;DHT22;55961;52.156;20.942;2024-03-25T08:47:38;8.90;70.80
68924;DHT22;55961;52.156;20.942;2024-03-25T08:50:06;9.00;69.70
68924;DHT22;55961;52.156;20.942;2024-03-25T08:52:32;9.10;69.40
68924;DHT22;55961;52.156;20.942;2024-03-25T08:54:58;9.10;68.20
68924;DHT22;55961;52.156;20.942;2024-03-25T08:57:24;9.20;67.70
68924;DHT22;55961;52.156;20.942;2024-03-25T08:59:50;9.30;68.00
68924;DHT22;55961;52.156;20.942;2024-03-25T09:02:16;9.40;67.80
68924;DHT22;55961;52.156;20.942;2024-03-25T09:04:42;9.50;68.10
68924;DHT22;55961;52.156;20.942;2024-03-25T09:07:08;9.70;67.10
68924;DHT22;55961;52.156;20.942;2024-03-25T09:09:34;9.80;65.10
68924;DHT22;55961;52.156;20.942;2024-03-25T09:12:18;9.80;64.70
68924;DHT22;55961;52.156;20.942;2024-03-25T09:14:44;9.90;64.00
68924;DHT22;55961;52.156;20.942;2024-03-25T09:17:11;10.00;64.80
68924;DHT22;55961;52.156;20.942;2024-03-25T09:19:38;10.10;64.00
68924;DHT22;55961;52.156;20.942;2024-03-25T09:22:04;10.10;62.60
68924;DHT22;55961;52.156;20.942;2024-03-25T09:24:30;10.10;63.00
68924;DHT22;55961;52.156;20.942;2024-03-25T09:26:56;10.20;63.80
68924;DHT22;55961;52.156;20.942;2024-03-25T09:29:22;10.20;62.00
68924;DHT22;55961;52.156;20.942;2024-03-25T09:31:47;10.20;62.50
68924;DHT22;55961;52.156;20.942;2024-03-25T09:34:13;10.30;62.50
68924;DHT22;55961;52.156;20.942;2024-03-25T09:36:40;10.30;61.80
68924;DHT22;55961;52.156;20.942;2024-03-25T09:39:06;10.50;60.10
68924;DHT22;55961;52.156;20.942;2024-03-25T09:41:35;10.60;59.80
68924;DHT22;55961;52.156;20.942;2024-03-25T09:44:03;10.80;58.70
68924;DHT22;55961;52.156;20.942;2024-03-25T09:46:31;11.00;57.80
68924;DHT22;55961;52.156;20.942;2024-03-25T09:48:58;11.10;56.80
68924;DHT22;55961;52.156;20.942;2024-03-25T09:51:23;11.10;57.00
68924;DHT22;55961;52.156;20.942;2024-03-25T09:53:49;11.10;57.80
68924;DHT22;55961;52.156;20.942;2024-03-25T09:56:16;11.10;56.10
68924;DHT22;55961;52.156;20.942;2024-03-25T09:58:44;11.10;56.80
68924;DHT22;55961;52.156;20.942;2024-03-25T10:01:10;11.00;57.40
68924;DHT22;55961;52.156;20.942;2024-03-25T10:03:36;10.90;57.70
68924;DHT22;55961;52.156;20.942;2024-03-25T10:06:02;10.90;58.30
68924;DHT22;55961;52.156;20.942;2024-03-25T10:08:28;10.80;58.60
68924;DHT22;55961;52.156;20.942;2024-03-25T10:10:56;10.80;58.80
68924;DHT22;55961;52.156;20.942;2024-03-25T10:13:26;10.80;57.70
68924;DHT22;55961;52.156;20.942;2024-03-25T10:15:52;10.80;58.50
68924;DHT22;55961;52.156;20.942;2024-03-25T10:18:20;10.90;58.20
68924;DHT22;55961;52.156;20.942;2024-03-25T10:20:52;11.00;57.80
68924;DHT22;55961;52.156;20.942;2024-03-25T10:23:25;11.10;57.00
68924;DHT22;55961;52.156;20.942;2024-03-25T10:25:55;11.10;57.20
68924;DHT22;55961;52.156;20.942;2024-03-25T10:28:21;11.10;55.40
68924;DHT22;55961;52.156;20.942;2024-03-25T10:30:47;11.10;55.00
68924;DHT22;55961;52.156;20.942;2024-03-25T10:33:13;11.20;55.20
68924;DHT22;55961;52.156;20.942;2024-03-25T10:35:40;11.20;54.60
68924;DHT22;55961;52.156;20.942;2024-03-25T10:38:10;11.20;53.90
68924;DHT22;55961;52.156;20.942;2024-03-25T10:40:40;11.10;53.90
68924;DHT22;55961;52.156;20.942;2024-03-25T10:43:10;11.10;53.90
68924;DHT22;55961;52.156;20.942;2024-03-25T10:45:47;11.00;54.20
68924;DHT22;55961;52.156;20.942;2024-03-25T10:48:29;10.90;54.50
68924;DHT22;55961;52.156;20.942;2024-03-25T10:50:56;10.90;54.70
68924;DHT22;55961;52.156;20.942;2024-03-25T10:53:24;10.80;54.20
68924;DHT22;55961;52.156;20.942;2024-03-25T10:55:56;10.70;54.60
68924;DHT22;55961;52.156;20.942;2024-03-25T10:58:23;10.60;55.20
68924;DHT22;55961;52.156;20.942;2024-03-25T11:00:51;10.60;55.30
68924;DHT22;55961;52.156;20.942;2024-03-25T11:03:18;10.50;55.60
68924;DHT22;55961;52.156;20.942;2024-03-25T11:05:48;10.50;55.20
68924;DHT22;55961;52.156;20.942;2024-03-25T11:08:15;10.40;55.50
68924;DHT22;55961;52.156;20.942;2024-03-25T11:10:42;10.40;56.70
68924;DHT22;55961;52.156;20.942;2024-03-25T11:13:16;10.50;56.50
68924;DHT22;55961;52.156;20.942;2024-03-25T11:15:44;10.60;55.50
68924;DHT22;55961;52.156;20.942;2024-03-25T11:18:14;10.60;55.20
68924;DHT22;55961;52.156;20.942;2024-03-25T11:20:40;10.70;54.60
68924;DHT22;55961;52.156;20.942;2024-03-25T11:23:13;10.70;54.20
68924;DHT22;55961;52.156;20.942;2024-03-25T11:25:40;10.80;54.60
68924;DHT22;55961;52.156;20.942;2024-03-25T11:28:08;10.90;54.50
68924;DHT22;55961;52.156;20.942;2024-03-25T11:30:34;11.00;54.00
68924;DHT22;55961;52.156;20.942;2024-03-25T11:33:02;11.10;55.30
68924;DHT22;55961;52.156;20.942;2024-03-25T11:35:30;11.30;53.80
68924;DHT22;55961;52.156;20.942;2024-03-25T11:38:02;11.60;52.00
68924;DHT22;55961;52.156;20.942;2024-03-25T11:40:28;11.70;51.90
68924;DHT22;55961;52.156;20.942;2024-03-25T11:42:54;11.90;52.30
68924;DHT22;55961;52.156;20.942;2024-03-25T11:45:21;11.90;51.90
68924;DHT22;55961;52.156;20.942;2024-03-25T11:47:48;11.90;52.10
68924;DHT22;55961;52.156;20.942;2024-03-25T11:50:16;12.00;50.70
68924;DHT22;55961;52.156;20.942;2024-03-25T11:52:43;12.10;50.40
68924;DHT22;55961;52.156;20.942;2024-03-25T11:55:09;12.10;49.10
68924;DHT22;55961;52.156;20.942;2024-03-25T11:57:37;12.10;50.30
68924;DHT22;55961;52.156;20.942;2024-03-25T12:00:08;12.10;50.40
68924;DHT22;55961;52.156;20.942;2024-03-25T12:02:42;12.00;51.40
68924;DHT22;55961;52.156;20.942;2024-03-25T12:05:09;11.90;52.10
68924;DHT22;55961;52.156;20.942;2024-03-25T12:07:34;11.80;52.20
68924;DHT22;55961;52.156;20.942;2024-03-25T12:10:02;11.80;52.50
68924;DHT22;55961;52.156;20.942;2024-03-25T12:12:47;11.70;52.70
68924;DHT22;55961;52.156;20.942;2024-03-25T12:15:13;11.60;52.70
68924;DHT22;55961;52.156;20.942;2024-03-25T12:17:39;11.60;53.60
68924;DHT22;55961;52.156;20.942;2024-03-25T12:20:07;11.70;54.10
68924;DHT22;55961;52.156;20.942;2024-03-25T12:22:40;11.70;53.00
68924;DHT22;55961;52.156;20.942;2024-03-25T12:25:07;11.80;53.00
68924;DHT22;55961;52.156;20.942;2024-03-25T12:27:36;11.90;52.40
68924;DHT22;55961;52.156;20.942;2024-03-25T12:30:07;12.00;51.00
68924;DHT22;55961;52.156;20.942;2024-03-25T12:32:41;12.00;50.80
68924;DHT22;55961;52.156;20.942;2024-03-25T12:35:08;12.10;50.20
68924;DHT22;55961;52.156;20.942;2024-03-25T12:37:37;12.10;50.70
68924;DHT22;55961;52.156;20.942;2024-03-25T12:40:04;12.00;50.90
68924;DHT22;55961;52.156;20.942;2024-03-25T12:42:32;12.00;52.30
68924;DHT22;55961;52.156;20.942;2024-03-25T12:44:58;12.00;51.00
68924;DHT22;55961;52.156;20.942;2024-03-25T12:47:24;12.00;52.50
68924;DHT22;55961;52.156;20.942;2024-03-25T12:49:50;12.00;53.10
68924;DHT22;55961;52.156;20.942;2024-03-25T12:52:16;12.00;53.00
68924;DHT22;55961;52.156;20.942;2024-03-25T12:54:43;12.00;53.50
68924;DHT22;55961;52.156;20.942;2024-03-25T12:57:09;11.90;53.80
68924;DHT22;55961;52.156;20.942;2024-03-25T12:59:35;11.90;54.10
68924;DHT22;55961;52.156;20.942;2024-03-25T13:02:01;11.80;53.60
68924;DHT22;55961;52.156;20.942;2024-03-25T13:04:28;11.80;53.80
68924;DHT22;55961;52.156;20.942;2024-03-25T13:06:54;11.70;54.30
68924;DHT22;55961;52.156;20.942;2024-03-25T13:09:20;11.60;54.70
68924;DHT22;55961;52.156;20.942;2024-03-25T13:11:46;11.50;54.50
68924;DHT22;55961;52.156;20.942;2024-03-25T13:14:12;11.50;55.30
68924;DHT22;55961;52.156;20.942;2024-03-25T13:16:39;11.40;55.00
68924;DHT22;55961;52.156;20.942;2024-03-25T13:19:06;11.30;55.90
68924;DHT22;55961;52.156;20.942;2024-03-25T13:21:33;11.30;56.20
68924;DHT22;55961;52.156;20.942;2024-03-25T13:23:59;11.30;55.70
68924;DHT22;55961;52.156;20.942;2024-03-25T13:26:25;11.30;55.90
68924;DHT22;55961;52.156;20.942;2024-03-25T13:28:53;11.30;56.00
68924;DHT22;55961;52.156;20.942;2024-03-25T13:31:18;11.30;56.00
68924;DHT22;55961;52.156;20.942;2024-03-25T13:33:45;11.20;56.00
68924;DHT22;55961;52.156;20.942;2024-03-25T13:36:10;11.20;56.70
68924;DHT22;55961;52.156;20.942;2024-03-25T13:38:36;11.10;56.60
68924;DHT22;55961;52.156;20.942;2024-03-25T13:41:03;11.10;56.60
68924;DHT22;55961;52.156;20.942;2024-03-25T13:43:29;11.00;56.90
68924;DHT22;55961;52.156;20.942;2024-03-25T13:45:54;11.00;57.00
68924;DHT22;55961;52.156;20.942;2024-03-25T13:48:20;10.90;57.20
68924;DHT22;55961;52.156;20.942;2024-03-25T13:50:47;10.90;57.80
68924;DHT22;55961;52.156;20.942;2024-03-25T13:53:14;10.80;58.30
68924;DHT22;55961;52.156;20.942;2024-03-25T13:55:40;10.80;58.50
68924;DHT22;55961;52.156;20.942;2024-03-25T13:58:07;10.80;58.30
68924;DHT22;55961;52.156;20.942;2024-03-25T14:00:34;10.80;57.60
68924;DHT22;55961;52.156;20.942;2024-03-25T14:03:03;10.80;58.30
68924;DHT22;55961;52.156;20.942;2024-03-25T14:05:29;10.80;57.70
68924;DHT22;55961;52.156;20.942;2024-03-25T14:07:55;10.80;58.20
68924;DHT22;55961;52.156;20.942;2024-03-25T14:10:22;10.80;57.80
68924;DHT22;55961;52.156;20.942;2024-03-25T14:12:48;10.80;57.00
68924;DHT22;55961;52.156;20.942;2024-03-25T14:15:14;10.80;57.30
68924;DHT22;55961;52.156;20.942;2024-03-25T14:17:40;10.80;57.80
68924;DHT22;55961;52.156;20.942;2024-03-25T14:20:06;10.80;57.70
68924;DHT22;55961;52.156;20.942;2024-03-25T14:22:33;10.80;57.50
68924;DHT22;55961;52.156;20.942;2024-03-25T14:24:59;10.80;56.10
68924;DHT22;55961;52.156;20.942;2024-03-25T14:27:25;10.70;55.40
68924;DHT22;55961;52.156;20.942;2024-03-25T14:29:51;10.70;55.70
68924;DHT22;55961;52.156;20.942;2024-03-25T14:32:22;10.70;55.70
68924;DHT22;55961;52.156;20.942;2024-03-25T14:34:48;10.70;55.90
68924;DHT22;55961;52.156;20.942;2024-03-25T14:37:14;10.70;56.10
68924;DHT22;55961;52.156;20.942;2024-03-25T14:39:40;10.70;55.90
68924;DHT22;55961;52.156;20.942;2024-03-25T14:42:10;10.70;56.90
68924;DHT22;55961;52.156;20.942;2024-03-25T14:44:36;10.70;55.80
68924;DHT22;55961;52.156;20.942;2024-03-25T14:47:03;10.80;56.00
68924;DHT22;55961;52.156;20.942;2024-03-25T14:49:29;10.80;55.80
68924;DHT22;55961;52.156;20.942;2024-03-25T14:51:56;10.90;55.70
68924;DHT22;55961;52.156;20.942;2024-03-25T14:54:22;11.00;54.90
68924;DHT22;55961;52.156;20.942;2024-03-25T14:56:48;11.10;54.20
68924;DHT22;55961;52.156;20.942;2024-03-25T14:59:14;11.20;54.00
68924;DHT22;55961;52.156;20.942;2024-03-25T15:01:40;11.30;54.30
68924;DHT22;55961;52.156;20.942;2024-03-25T15:04:06;11.40;54.90
68924;DHT22;55961;52.156;20.942;2024-03-25T15:06:33;11.50;52.50
68924;DHT22;55961;52.156;20.942;2024-03-25T15:08:59;11.50;52.90
68924;DHT22;55961;52.156;20.942;2024-03-25T15:11:26;11.50;52.50
68924;DHT22;55961;52.156;20.942;2024-03-25T15:13:52;11.40;52.60
68924;DHT22;55961;52.156;20.942;2024-03-25T15:16:19;11.40;53.30
68924;DHT22;55961;52.156;20.942;2024-03-25T15:18:45;11.40;53.60
68924;DHT22;55961;52.156;20.942;2024-03-25T15:21:11;11.40;53.50
68924;DHT22;55961;52.156;20.942;2024-03-25T15:23:38;11.40;54.10